sensor_id;sensor_type;location;lat;lon;timestamp;temperature;humidity
13113;DHT22;6622;49.752;6.100;2022-11-20T00:00:15;8.00;99.90
13113;DHT22;6622;49.752;6.100;2022-11-20T00:02:40;8.00;99.90
13113;DHT22;6622;49.752;6.100;2022-11-20T00:05:07;8.00;99.90
13113;DHT22;6622;49.752;6.100;2022-11-20T00:07:34;7.90;99.90
13113;DHT22;6622;49.752;6.100;2022-11-20T00:10:00;8.00;99.90
13113;DHT22;6622;49.752;6.100;2022-11-20T00:12:27;8.00;99.90
13113;DHT22;6622;49.752;6.100;2022-11-20T00:14:54;8.00;99.90
13113;DHT22;6622;49.752;6.100;2022-11-20T00:17:20;7.90;99.90
13113;DHT22;6622;49.752;6.100;2022-11-20T00:19:47;8.00;99.90
13113;DHT22;6622;49.752;6.100;2022-11-20T00:22:14;8.00;99.90
13113;DHT22;6622;49.752;6.100;2022-11-20T00:24:40;8.00;99.90
13113;DHT22;6622;49.752;6.100;2022-11-20T00:27:07;8.00;99.90
13113;DHT22;6622;49.752;6.100;2022-11-20T00:29:33;8.00;99.90
13113;DHT22;6622;49.752;6.100;2022-11-20T00:32:00;8.00;99.90
13113;DHT22;6622;49.752;6.100;2022-11-20T00:34:27;8.00;99.90
13113;DHT22;6622;49.752;6.100;2022-11-20T00:36:53;7.90;99.90
13113;DHT22;6622;49.752;6.100;2022-11-20T00:39:20;7.90;99.90
13113;DHT22;6622;49.752;6.100;2022-11-20T00:41:47;7.90;99.90
13113;DHT22;6622;49.752;6.100;2022-11-20T00:44:14;7.90;99.90
13113;DHT22;6622;49.752;6.100;2022-11-20T00:46:41;7.90;99.90
13113;DHT22;6622;49.752;6.100;2022-11-20T00:49:07;7.90;99.90
13113;DHT22;6622;49.752;6.100;2022-11-20T00:51:34;7.90;99.90
13113;DHT22;6622;49.752;6.100;2022-11-20T00:54:00;7.90;99.90
13113;DHT22;6622;49.752;6.100;2022-11-20T00:56:27;7.90;99.90
13113;DHT22;6622;49.752;6.100;2022-11-20T00:58:54;7.90;99.90
13113;DHT22;6622;49.752;6.100;2022-11-20T01:01:21;7.90;99.90
13113;DHT22;6622;49.752;6.100;2022-11-20T01:03:50;7.90;99.90
13113;DHT22;6622;49.752;6.100;2022-11-20T01:06:29;7.90;99.90
13113;DHT22;6622;49.752;6.100;2022-11-20T01:08:55;7.90;99.90
13113;DHT22;6622;49.752;6.100;2022-11-20T01:11:22;7.80;99.90
13113;DHT22;6622;49.752;6.100;2022-11-20T01:13:48;7.80;99.90
13113;DHT22;6622;49.752;6.100;2022-11-20T01:16:16;7.80;99.90
13113;DHT22;6622;49.752;6.100;2022-11-20T01:18:42;7.80;99.90
13113;DHT22;6622;49.752;6.100;2022-11-20T01:21:09;7.80;99.90
13113;DHT22;6622;49.752;6.100;2022-11-20T01:23:35;7.80;99.90
13113;DHT22;6622;49.752;6.100;2022-11-20T01:26:01;7.80;99.90
13113;DHT22;6622;49.752;6.100;2022-11-20T01:28:28;7.90;99.90
13113;DHT22;6622;49.752;6.100;2022-11-20T01:30:54;7.90;99.90
13113;DHT22;6622;49.752;6.100;2022-11-20T01:33:21;7.90;99.90
13113;DHT22;6622;49.752;6.100;2022-11-20T01:35:47;7.90;99.90
13113;DHT22;6622;49.752;6.100;2022-11-20T01:38:17;7.90;99.90
13113;DHT22;6622;49.752;6.100;2022-11-20T01:40:41;7.90;99.90
13113;DHT22;6622;49.752;6.100;2022-11-20T01:43:16;7.90;99.90
13113;DHT22;6622;49.752;6.100;2022-11-20T01:45:59;7.90;99.90
13113;DHT22;6622;49.752;6.100;2022-11-20T01:48:25;7.90;99.90
13113;DHT22;6622;49.752;6.100;2022-11-20T01:50:51;8.00;99.90
13113;DHT22;6622;49.752;6.100;2022-11-20T01:53:18;8.00;99.90
13113;DHT22;6622;49.752;6.100;2022-11-20T01:55:48;8.10;99.90
13113;DHT22;6622;49.752;6.100;2022-11-20T01:58:11;8.10;99.90
13113;DHT22;6622;49.752;6.100;2022-11-20T02:00:38;8.00;99.90
13113;DHT22;6622;49.752;6.100;2022-11-20T02:03:05;8.00;99.90
13113;DHT22;6622;49.752;6.100;2022-11-20T02:05:38;7.90;99.90
13113;DHT22;6622;49.752;6.100;2022-11-20T02:08:04;7.90;99.90
13113;DHT22;6622;49.752;6.100;2022-11-20T02:10:30;7.90;99.90
13113;DHT22;6622;49.752;6.100;2022-11-20T02:12:56;7.90;99.90
13113;DHT22;6622;49.752;6.100;2022-11-20T02:15:41;7.90;99.90
13113;DHT22;6622;49.752;6.100;2022-11-20T02:18:08;7.90;99.90
13113;DHT22;6622;49.752;6.100;2022-11-20T02:20:35;7.90;99.90
13113;DHT22;6622;49.752;6.100;2022-11-20T02:23:04;7.90;99.90
13113;DHT22;6622;49.752;6.100;2022-11-20T02:25:28;7.80;99.90
13113;DHT22;6622;49.752;6.100;2022-11-20T02:27:56;7.80;99.90
13113;DHT22;6622;49.752;6.100;2022-11-20T02:30:22;7.80;99.90
13113;DHT22;6622;49.752;6.100;2022-11-20T02:32:49;7.80;99.90
13113;DHT22;6622;49.752;6.100;2022-11-20T02:37:49;7.70;99.90
13113;DHT22;6622;49.752;6.100;2022-11-20T02:40:12;7.70;99.90
13113;DHT22;6622;49.752;6.100;2022-11-20T02:42:38;7.70;99.90
13113;DHT22;6622;49.752;6.100;2022-11-20T02:45:06;7.70;99.90
13113;DHT22;6622;49.752;6.100;2022-11-20T02:47:32;7.70;99.90
13113;DHT22;6622;49.752;6.100;2022-11-20T02:49:59;7.70;99.90
13113;DHT22;6622;49.752;6.100;2022-11-20T02:52:26;7.70;99.90
13113;DHT22;6622;49.752;6.100;2022-11-20T02:54:53;7.80;99.90
13113;DHT22;6622;49.752;6.100;2022-11-20T02:57:20;7.80;99.90
13113;DHT22;6622;49.752;6.100;2022-11-20T02:59:46;7.70;99.90
13113;DHT22;6622;49.752;6.100;2022-11-20T03:02:13;7.70;99.90
13113;DHT22;6622;49.752;6.100;2022-11-20T03:04:40;7.70;99.90
13113;DHT22;6622;49.752;6.100;2022-11-20T03:07:07;7.70;99.90
13113;DHT22;6622;49.752;6.100;2022-11-20T03:09:33;7.60;99.90
13113;DHT22;6622;49.752;6.100;2022-11-20T03:11:59;7.70;99.90
13113;DHT22;6622;49.752;6.100;2022-11-20T03:14:26;7.70;99.90
13113;DHT22;6622;49.752;6.100;2022-11-20T03:16:53;7.70;99.90
13113;DHT22;6622;49.752;6.100;2022-11-20T03:19:20;7.70;99.90
13113;DHT22;6622;49.752;6.100;2022-11-20T03:21:47;7.60;99.90
13113;DHT22;6622;49.752;6.100;2022-11-20T03:24:14;7.70;99.90
13113;DHT22;6622;49.752;6.100;2022-11-20T03:26:41;7.60;99.90
13113;DHT22;6622;49.752;6.100;2022-11-20T03:29:07;7.60;99.90
13113;DHT22;6622;49.752;6.100;2022-11-20T03:31:37;7.60;99.90
13113;DHT22;6622;49.752;6.100;2022-11-20T03:34:03;7.70;99.90
13113;DHT22;6622;49.752;6.100;2022-11-20T03:36:30;7.70;99.90
13113;DHT22;6622;49.752;6.100;2022-11-20T03:38:56;7.70;99.90
13113;DHT22;6622;49.752;6.100;2022-11-20T03:41:25;7.70;99.90
13113;DHT22;6622;49.752;6.100;2022-11-20T03:43:51;7.60;99.90
13113;DHT22;6622;49.752;6.100;2022-11-20T03:46:17;7.70;99.90
13113;DHT22;6622;49.752;6.100;2022-11-20T03:48:44;7.70;99.90
13113;DHT22;6622;49.752;6.100;2022-11-20T03:51:14;7.70;99.90
13113;DHT22;6622;49.752;6.100;2022-11-20T03:53:40;7.70;99.90
13113;DHT22;6622;49.752;6.100;2022-11-20T03:56:08;7.70;99.90
13113;DHT22;6622;49.752;6.100;2022-11-20T03:58:35;7.70;99.90
13113;DHT22;6622;49.752;6.100;2022-11-20T04:01:04;7.70;99.90
13113;DHT22;6622;49.752;6.100;2022-11-20T04:03:30;7.60;99.90
13113;DHT22;6622;49.752;6.100;2022-11-20T04:06:01;7.70;99.90
13113;DHT22;6622;49.752;6.100;2022-11-20T04:08:23;7.60;99.90
13113;DHT22;6622;49.752;6.100;2022-11-20T04:10:50;7.70;99.90
13113;DHT22;6622;49.752;6.100;2022-11-20T04:13:17;7.70;99.90
13113;DHT22;6622;49.752;6.100;2022-11-20T04:15:44;7.70;99.90
13113;DHT22;6622;49.752;6.100;2022-11-20T04:18:11;7.70;99.90
13113;DHT22;6622;49.752;6.100;2022-11-20T04:20:38;7.70;99.90
13113;DHT22;6622;49.752;6.100;2022-11-20T04:23:05;7.70;99.90
13113;DHT22;6622;49.752;6.100;2022-11-20T04:25:31;7.70;99.90
13113;DHT22;6622;49.752;6.100;2022-11-20T04:27:58;7.60;99.90
13113;DHT22;6622;49.752;6.100;2022-11-20T04:30:25;7.70;99.90
13113;DHT22;6622;49.752;6.100;2022-11-20T04:32:51;7.60;99.90
13113;DHT22;6622;49.752;6.100;2022-11-20T04:35:18;7.60;99.90
13113;DHT22;6622;49.752;6.100;2022-11-20T04:37:44;7.60;99.90
13113;DHT22;6622;49.752;6.100;2022-11-20T04:40:11;7.60;99.90
13113;DHT22;6622;49.752;6.100;2022-11-20T04:42:38;7.60;99.90
13113;DHT22;6622;49.752;6.100;2022-11-20T04:45:04;7.60;99.90
13113;DHT22;6622;49.752;6.100;2022-11-20T04:47:31;7.50;99.90
13113;DHT22;6622;49.752;6.100;2022-11-20T04:49:58;7.50;99.90
13113;DHT22;6622;49.752;6.100;2022-11-20T04:52:24;7.50;99.90
13113;DHT22;6622;49.752;6.100;2022-11-20T04:54:51;7.50;99.90
13113;DHT22;6622;49.752;6.100;2022-11-20T04:57:18;7.40;99.90
13113;DHT22;6622;49.752;6.100;2022-11-20T04:59:45;7.30;99.90
13113;DHT22;6622;49.752;6.100;2022-11-20T05:02:12;7.30;99.90
13113;DHT22;6622;49.752;6.100;2022-11-20T05:04:38;7.30;99.90
13113;DHT22;6622;49.752;6.100;2022-11-20T05:07:05;7.30;99.90
13113;DHT22;6622;49.752;6.100;2022-11-20T05:09:32;7.40;99.90
13113;DHT22;6622;49.752;6.100;2022-11-20T05:11:59;7.40;99.90
13113;DHT22;6622;49.752;6.100;2022-11-20T05:14:26;7.40;99.90
13113;DHT22;6622;49.752;6.100;2022-11-20T05:16:53;7.40;99.90
13113;DHT22;6622;49.752;6.100;2022-11-20T05:19:19;7.40;99.90
13113;DHT22;6622;49.752;6.100;2022-11-20T05:21:47;7.50;99.90
13113;DHT22;6622;49.752;6.100;2022-11-20T05:24:13;7.50;99.90
13113;DHT22;6622;49.752;6.100;2022-11-20T05:26:40;7.50;99.90
13113;DHT22;6622;49.752;6.100;2022-11-20T05:29:08;7.50;99.90
13113;DHT22;6622;49.752;6.100;2022-11-20T05:31:33;7.50;99.90
13113;DHT22;6622;49.752;6.100;2022-11-20T05:34:00;7.50;99.90
13113;DHT22;6622;49.752;6.100;2022-11-20T05:36:27;7.50;99.90
13113;DHT22;6622;49.752;6.100;2022-11-20T05:38:53;7.40;99.90
13113;DHT22;6622;49.752;6.100;2022-11-20T05:41:20;7.40;99.90
13113;DHT22;6622;49.752;6.100;2022-11-20T05:43:47;7.40;99.90
13113;DHT22;6622;49.752;6.100;2022-11-20T05:46:14;7.40;99.90
13113;DHT22;6622;49.752;6.100;2022-11-20T05:48:40;7.50;99.90
13113;DHT22;6622;49.752;6.100;2022-11-20T05:51:08;7.40;99.90
13113;DHT22;6622;49.752;6.100;2022-11-20T05:53:33;7.40;99.90
13113;DHT22;6622;49.752;6.100;2022-11-20T05:56:00;7.50;99.90
13113;DHT22;6622;49.752;6.100;2022-11-20T05:58:26;7.50;99.90
13113;DHT22;6622;49.752;6.100;2022-11-20T06:00:53;7.50;99.90
13113;DHT22;6622;49.752;6.100;2022-11-20T06:03:19;7.50;99.90
13113;DHT22;6622;49.752;6.100;2022-11-20T06:05:46;7.50;99.90
13113;DHT22;6622;49.752;6.100;2022-11-20T06:08:13;7.50;99.90
13113;DHT22;6622;49.752;6.100;2022-11-20T06:10:39;7.50;99.90
13113;DHT22;6622;49.752;6.100;2022-11-20T06:13:06;7.60;99.90
13113;DHT22;6622;49.752;6.100;2022-11-20T06:15:33;7.60;99.90
13113;DHT22;6622;49.752;6.100;2022-11-20T06:17:59;7.60;99.90
13113;DHT22;6622;49.752;6.100;2022-11-20T06:20:27;7.50;99.90
13113;DHT22;6622;49.752;6.100;2022-11-20T06:22:53;7.50;99.90
13113;DHT22;6622;49.752;6.100;2022-11-20T06:25:20;7.60;99.90
13113;DHT22;6622;49.752;6.100;2022-11-20T06:27:47;7.50;99.90
13113;DHT22;6622;49.752;6.100;2022-11-20T06:30:14;7.50;99.90
13113;DHT22;6622;49.752;6.100;2022-11-20T06:32:40;7.50;99.90
13113;DHT22;6622;49.752;6.100;2022-11-20T06:35:07;7.50;99.90
13113;DHT22;6622;49.752;6.100;2022-11-20T06:37:34;7.50;99.90
13113;DHT22;6622;49.752;6.100;2022-11-20T06:40:01;7.60;99.90
13113;DHT22;6622;49.752;6.100;2022-11-20T06:42:28;7.60;99.90
13113;DHT22;6622;49.752;6.100;2022-11-20T06:44:54;7.60;99.90
13113;DHT22;6622;49.752;6.100;2022-11-20T06:47:22;7.60;99.90
13113;DHT22;6622;49.752;6.100;2022-11-20T06:49:48;7.60;99.90
13113;DHT22;6622;49.752;6.100;2022-11-20T06:52:15;7.60;99.90
13113;DHT22;6622;49.752;6.100;2022-11-20T06:54:42;7.50;99.90
13113;DHT22;6622;49.752;6.100;2022-11-20T06:57:09;7.50;99.90
13113;DHT22;6622;49.752;6.100;2022-11-20T06:59:36;7.60;99.90
13113;DHT22;6622;49.752;6.100;2022-11-20T07:02:03;7.60;99.90
13113;DHT22;6622;49.752;6.100;2022-11-20T07:04:30;7.60;99.90
13113;DHT22;6622;49.752;6.100;2022-11-20T07:06:57;7.60;99.90
13113;DHT22;6622;49.752;6.100;2022-11-20T07:09:24;7.60;99.90
13113;DHT22;6622;49.752;6.100;2022-11-20T07:11:50;7.60;99.90
13113;DHT22;6622;49.752;6.100;2022-11-20T07:14:17;7.60;99.90
13113;DHT22;6622;49.752;6.100;2022-11-20T07:16:44;7.60;99.90
13113;DHT22;6622;49.752;6.100;2022-11-20T07:19:11;7.60;99.90
13113;DHT22;6622;49.752;6.100;2022-11-20T07:21:38;7.60;99.90
13113;DHT22;6622;49.752;6.100;2022-11-20T07:24:04;7.60;99.90
13113;DHT22;6622;49.752;6.100;2022-11-20T07:26:31;7.60;99.90
13113;DHT22;6622;49.752;6.100;2022-11-20T07:28:57;7.70;99.90
13113;DHT22;6622;49.752;6.100;2022-11-20T07:31:24;7.70;99.90
13113;DHT22;6622;49.752;6.100;2022-11-20T07:33:51;7.70;99.90
13113;DHT22;6622;49.752;6.100;2022-11-20T07:36:17;7.60;99.90
13113;DHT22;6622;49.752;6.100;2022-11-20T07:38:45;7.60;99.90
13113;DHT22;6622;49.752;6.100;2022-11-20T07:41:11;7.60;99.90
13113;DHT22;6622;49.752;6.100;2022-11-20T07:43:38;7.60;99.90
13113;DHT22;6622;49.752;6.100;2022-11-20T07:46:05;7.70;99.90
13113;DHT22;6622;49.752;6.100;2022-11-20T07:48:32;7.70;99.90
13113;DHT22;6622;49.752;6.100;2022-11-20T07:50:59;7.70;99.90
13113;DHT22;6622;49.752;6.100;2022-11-20T07:53:26;7.80;99.90
13113;DHT22;6622;49.752;6.100;2022-11-20T07:55:53;7.80;99.90
13113;DHT22;6622;49.752;6.100;2022-11-20T07:58:20;7.80;99.90
13113;DHT22;6622;49.752;6.100;2022-11-20T08:00:47;7.90;99.90
13113;DHT22;6622;49.752;6.100;2022-11-20T08:03:13;7.80;99.90
13113;DHT22;6622;49.752;6.100;2022-11-20T08:05:41;7.90;99.90
13113;DHT22;6622;49.752;6.100;2022-11-20T08:08:07;7.90;99.90
13113;DHT22;6622;49.752;6.100;2022-11-20T08:10:34;7.80;99.90
13113;DHT22;6622;49.752;6.100;2022-11-20T08:13:00;7.70;99.90
13113;DHT22;6622;49.752;6.100;2022-11-20T08:15:49;7.70;99.90
13113;DHT22;6622;49.752;6.100;2022-11-20T08:18:12;7.60;99.90
13113;DHT22;6622;49.752;6.100;2022-11-20T08:20:38;7.70;99.90
13113;DHT22;6622;49.752;6.100;2022-11-20T08:23:05;7.60;99.90
13113;DHT22;6622;49.752;6.100;2022-11-20T08:25:32;7.70;99.90
13113;DHT22;6622;49.752;6.100;2022-11-20T08:27:59;7.80;99.90
13113;DHT22;6622;49.752;6.100;2022-11-20T08:30:26;7.80;99.90
13113;DHT22;6622;49.752;6.100;2022-11-20T08:32:52;7.80;99.90
13113;DHT22;6622;49.752;6.100;2022-11-20T08:35:20;8.00;99.90
13113;DHT22;6622;49.752;6.100;2022-11-20T08:37:49;8.00;99.90
13113;DHT22;6622;49.752;6.100;2022-11-20T08:40:16;8.00;99.90
13113;DHT22;6622;49.752;6.100;2022-11-20T08:42:49;7.90;99.90
13113;DHT22;6622;49.752;6.100;2022-11-20T08:45:15;7.90;99.90
13113;DHT22;6622;49.752;6.100;2022-11-20T08:47:42;8.00;99.90
13113;DHT22;6622;49.752;6.100;2022-11-20T08:50:13;8.00;99.90
13113;DHT22;6622;49.752;6.100;2022-11-20T08:52:36;7.90;99.90
13113;DHT22;6622;49.752;6.100;2022-11-20T08:55:03;7.90;99.90
13113;DHT22;6622;49.752;6.100;2022-11-20T08:57:32;7.90;99.90
13113;DHT22;6622;49.752;6.100;2022-11-20T08:59:59;7.80;99.90
13113;DHT22;6622;49.752;6.100;2022-11-20T09:02:26;7.80;99.90
13113;DHT22;6622;49.752;6.100;2022-11-20T09:04:53;7.80;99.90
13113;DHT22;6622;49.752;6.100;2022-11-20T09:07:20;7.80;99.90
13113;DHT22;6622;49.752;6.100;2022-11-20T09:09:47;7.80;99.90
13113;DHT22;6622;49.752;6.100;2022-11-20T09:12:13;7.80;99.90
13113;DHT22;6622;49.752;6.100;2022-11-20T09:14:41;7.60;99.90
13113;DHT22;6622;49.752;6.100;2022-11-20T09:17:09;7.60;99.90
13113;DHT22;6622;49.752;6.100;2022-11-20T09:19:35;7.70;99.90
13113;DHT22;6622;49.752;6.100;2022-11-20T09:22:02;7.70;99.90
13113;DHT22;6622;49.752;6.100;2022-11-20T09:24:28;7.70;99.90
13113;DHT22;6622;49.752;6.100;2022-11-20T09:26:55;7.80;99.90
13113;DHT22;6622;49.752;6.100;2022-11-20T09:29:22;7.80;99.90
13113;DHT22;6622;49.752;6.100;2022-11-20T09:31:49;7.80;99.90
13113;DHT22;6622;49.752;6.100;2022-11-20T09:34:16;8.00;99.90
13113;DHT22;6622;49.752;6.100;2022-11-20T09:36:43;8.00;99.90
13113;DHT22;6622;49.752;6.100;2022-11-20T09:39:09;8.20;99.90
13113;DHT22;6622;49.752;6.100;2022-11-20T09:42:41;8.20;99.90
13113;DHT22;6622;49.752;6.100;2022-11-20T09:46:50;8.40;99.90
13113;DHT22;6622;49.752;6.100;2022-11-20T09:49:21;8.40;99.90
13113;DHT22;6622;49.752;6.100;2022-11-20T09:52:01;8.40;99.90
13113;DHT22;6622;49.752;6.100;2022-11-20T09:54:33;8.50;99.90
13113;DHT22;6622;49.752;6.100;2022-11-20T09:57:02;8.60;99.90
13113;DHT22;6622;49.752;6.100;2022-11-20T09:59:35;8.70;99.90
13113;DHT22;6622;49.752;6.100;2022-11-20T10:02:00;8.60;99.90
13113;DHT22;6622;49.752;6.100;2022-11-20T10:04:27;8.50;99.90
13113;DHT22;6622;49.752;6.100;2022-11-20T10:07:16;8.40;99.90
13113;DHT22;6622;49.752;6.100;2022-11-20T10:09:32;8.40;99.90
13113;DHT22;6622;49.752;6.100;2022-11-20T10:12:06;8.40;99.90
13113;DHT22;6622;49.752;6.100;2022-11-20T10:14:37;8.50;99.90
13113;DHT22;6622;49.752;6.100;2022-11-20T10:17:02;8.60;99.90
13113;DHT22;6622;49.752;6.100;2022-11-20T10:22:32;8.50;99.90
13113;DHT22;6622;49.752;6.100;2022-11-20T10:27:56;8.40;99.90
13113;DHT22;6622;49.752;6.100;2022-11-20T10:30:18;8.60;99.90
13113;DHT22;6622;49.752;6.100;2022-11-20T10:32:48;8.70;99.90
13113;DHT22;6622;49.752;6.100;2022-11-20T10:37:41;8.80;99.90
13113;DHT22;6622;49.752;6.100;2022-11-20T10:42:43;8.80;99.90
13113;DHT22;6622;49.752;6.100;2022-11-20T10:47:54;8.80;99.90
13113;DHT22;6622;49.752;6.100;2022-11-20T10:50:21;8.90;99.90
13113;DHT22;6622;49.752;6.100;2022-11-20T10:52:58;9.00;99.90
13113;DHT22;6622;49.752;6.100;2022-11-20T10:55:44;9.20;99.90
13113;DHT22;6622;49.752;6.100;2022-11-20T10:58:12;9.20;99.90
13113;DHT22;6622;49.752;6.100;2022-11-20T11:00:36;9.10;99.90
13113;DHT22;6622;49.752;6.100;2022-11-20T11:03:07;9.00;99.90
13113;DHT22;6622;49.752;6.100;2022-11-20T11:07:57;9.10;99.90
13113;DHT22;6622;49.752;6.100;2022-11-20T11:12:50;8.80;99.90
13113;DHT22;6622;49.752;6.100;2022-11-20T11:15:27;8.80;99.90
13113;DHT22;6622;49.752;6.100;2022-11-20T11:17:52;8.90;99.90
13113;DHT22;6622;49.752;6.100;2022-11-20T11:20:23;9.00;99.90
13113;DHT22;6622;49.752;6.100;2022-11-20T11:22:54;8.80;99.90
13113;DHT22;6622;49.752;6.100;2022-11-20T11:25:34;8.80;99.90
13113;DHT22;6622;49.752;6.100;2022-11-20T11:28:04;8.60;99.90
13113;DHT22;6622;49.752;6.100;2022-11-20T11:30:28;8.70;99.90
13113;DHT22;6622;49.752;6.100;2022-11-20T11:33:06;8.70;99.90
13113;DHT22;6622;49.752;6.100;2022-11-20T11:35:32;8.70;99.90
13113;DHT22;6622;49.752;6.100;2022-11-20T11:38:11;8.60;99.90
13113;DHT22;6622;49.752;6.100;2022-11-20T11:40:35;8.60;99.90
13113;DHT22;6622;49.752;6.100;2022-11-20T11:43:03;8.50;99.90
13113;DHT22;6622;49.752;6.100;2022-11-20T11:45:28;8.60;99.90
13113;DHT22;6622;49.752;6.100;2022-11-20T11:48:00;8.50;99.90
13113;DHT22;6622;49.752;6.100;2022-11-20T11:50:25;8.40;99.90
13113;DHT22;6622;49.752;6.100;2022-11-20T11:53:17;8.60;99.90
13113;DHT22;6622;49.752;6.100;2022-11-20T11:55:44;8.40;99.90
13113;DHT22;6622;49.752;6.100;2022-11-20T12:00:56;8.40;99.90
13113;DHT22;6622;49.752;6.100;2022-11-20T12:03:39;8.40;99.90
13113;DHT22;6622;49.752;6.100;2022-11-20T12:06:15;8.40;99.90
13113;DHT22;6622;49.752;6.100;2022-11-20T12:08:45;8.40;99.90
13113;DHT22;6622;49.752;6.100;2022-11-20T12:11:30;8.50;99.90
13113;DHT22;6622;49.752;6.100;2022-11-20T12:14:03;8.50;99.90
13113;DHT22;6622;49.752;6.100;2022-11-20T12:16:28;8.60;99.90
13113;DHT22;6622;49.752;6.100;2022-11-20T12:18:56;8.40;99.90
13113;DHT22;6622;49.752;6.100;2022-11-20T12:21:31;8.40;99.90
13113;DHT22;6622;49.752;6.100;2022-11-20T12:26:48;8.50;99.90
13113;DHT22;6622;49.752;6.100;2022-11-20T12:29:15;8.30;99.90
13113;DHT22;6622;49.752;6.100;2022-11-20T12:34:36;8.20;99.90
13113;DHT22;6622;49.752;6.100;2022-11-20T12:39:41;8.10;99.90
13113;DHT22;6622;49.752;6.100;2022-11-20T12:42:14;8.20;99.90
13113;DHT22;6622;49.752;6.100;2022-11-20T12:47:57;8.20;99.90
13113;DHT22;6622;49.752;6.100;2022-11-20T12:53:49;8.30;99.90
13113;DHT22;6622;49.752;6.100;2022-11-20T12:56:18;8.20;99.90
13113;DHT22;6622;49.752;6.100;2022-11-20T12:58:43;8.20;99.90
13113;DHT22;6622;49.752;6.100;2022-11-20T13:01:10;8.20;99.90
13113;DHT22;6622;49.752;6.100;2022-11-20T13:03:42;8.30;99.90
13113;DHT22;6622;49.752;6.100;2022-11-20T13:06:18;8.40;99.90
13113;DHT22;6622;49.752;6.100;2022-11-20T13:08:54;8.20;99.90
13113;DHT22;6622;49.752;6.100;2022-11-20T13:11:23;8.20;99.90
13113;DHT22;6622;49.752;6.100;2022-11-20T13:16:29;8.10;99.90
13113;DHT22;6622;49.752;6.100;2022-11-20T13:18:52;8.20;99.90
13113;DHT22;6622;49.752;6.100;2022-11-20T13:21:20;8.20;99.90
13113;DHT22;6622;49.752;6.100;2022-11-20T13:23:45;8.20;99.90
13113;DHT22;6622;49.752;6.100;2022-11-20T13:26:22;8.10;99.90
13113;DHT22;6622;49.752;6.100;2022-11-20T13:28:59;7.90;99.90
13113;DHT22;6622;49.752;6.100;2022-11-20T13:31:34;7.90;99.90
13113;DHT22;6622;49.752;6.100;2022-11-20T13:34:00;7.90;99.90
13113;DHT22;6622;49.752;6.100;2022-11-20T13:36:27;7.90;99.90
13113;DHT22;6622;49.752;6.100;2022-11-20T13:38:54;8.00;99.90
13113;DHT22;6622;49.752;6.100;2022-11-20T13:41:32;7.90;99.90
13113;DHT22;6622;49.752;6.100;2022-11-20T13:44:15;7.90;99.90
13113;DHT22;6622;49.752;6.100;2022-11-20T13:46:41;8.00;99.90
13113;DHT22;6622;49.752;6.100;2022-11-20T13:49:07;8.00;99.90
13113;DHT22;6622;49.752;6.100;2022-11-20T13:51:37;8.10;99.90
13113;DHT22;6622;49.752;6.100;2022-11-20T13:54:25;8.10;99.90
13113;DHT22;6622;49.752;6.100;2022-11-20T13:56:54;8.00;99.90
13113;DHT22;6622;49.752;6.100;2022-11-20T13:59:40;7.90;99.90
13113;DHT22;6622;49.752;6.100;2022-11-20T14:02:05;8.00;99.90
13113;DHT22;6622;49.752;6.100;2022-11-20T14:04:31;8.00;99.90
13113;DHT22;6622;49.752;6.100;2022-11-20T14:06:56;8.10;99.90
13113;DHT22;6622;49.752;6.100;2022-11-20T14:09:31;8.00;99.90
13113;DHT22;6622;49.752;6.100;2022-11-20T14:11:56;7.90;99.90
13113;DHT22;6622;49.752;6.100;2022-11-20T14:14:25;7.80;99.90
13113;DHT22;6622;49.752;6.100;2022-11-20T14:16:50;7.70;99.90
13113;DHT22;6622;49.752;6.100;2022-11-20T14:21:53;7.80;99.90
13113;DHT22;6622;49.752;6.100;2022-11-20T14:24:19;7.70;99.90
13113;DHT22;6622;49.752;6.100;2022-11-20T14:26:45;7.80;99.90
13113;DHT22;6622;49.752;6.100;2022-11-20T14:29:14;7.70;99.90
13113;DHT22;6622;49.752;6.100;2022-11-20T14:31:41;7.70;99.90
13113;DHT22;6622;49.752;6.100;2022-11-20T14:34:14;7.70;99.90
13113;DHT22;6622;49.752;6.100;2022-11-20T14:36:37;7.70;99.90
13113;DHT22;6622;49.752;6.100;2022-11-20T14:39:03;7.70;99.90
13113;DHT22;6622;49.752;6.100;2022-11-20T14:41:30;7.70;99.90
13113;DHT22;6622;49.752;6.100;2022-11-20T14:43:57;7.60;99.90
13113;DHT22;6622;49.752;6.100;2022-11-20T14:46:23;7.60;99.90
13113;DHT22;6622;49.752;6.100;2022-11-20T14:48:56;7.60;99.90
13113;DHT22;6622;49.752;6.100;2022-11-20T14:51:23;7.40;99.90
13113;DHT22;6622;49.752;6.100;2022-11-20T14:53:49;7.40;99.90
13113;DHT22;6622;49.752;6.100;2022-11-20T14:56:20;7.40;99.90
13113;DHT22;6622;49.752;6.100;2022-11-20T14:58:42;7.40;99.90
13113;DHT22;6622;49.752;6.100;2022-11-20T15:01:12;7.30;99.90
13113;DHT22;6622;49.752;6.100;2022-11-20T15:03:37;7.20;99.90
13113;DHT22;6622;49.752;6.100;2022-11-20T15:06:03;7.20;99.90
13113;DHT22;6622;49.752;6.100;2022-11-20T15:08:29;7.30;99.90
13113;DHT22;6622;49.752;6.100;2022-11-20T15:10:56;7.20;99.90
13113;DHT22;6622;49.752;6.100;2022-11-20T15:13:30;7.10;99.90
13113;DHT22;6622;49.752;6.100;2022-11-20T15:15:56;7.10;99.90
13113;DHT22;6622;49.752;6.100;2022-11-20T15:18:30;7.10;99.90
13113;DHT22;6622;49.752;6.100;2022-11-20T15:20:55;7.10;99.90
13113;DHT22;6622;49.752;6.100;2022-11-20T15:23:21;7.10;99.90
13113;DHT22;6622;49.752;6.100;2022-11-20T15:25:48;7.10;99.90
13113;DHT22;6622;49.752;6.100;2022-11-20T15:28:21;7.10;99.90
13113;DHT22;6622;49.752;6.100;2022-11-20T15:30:47;7.10;99.90
13113;DHT22;6622;49.752;6.100;2022-11-20T15:33:14;7.10;99.90
13113;DHT22;6622;49.752;6.100;2022-11-20T15:35:40;7.00;99.90
13113;DHT22;6622;49.752;6.100;2022-11-20T15:38:07;7.00;99.90
13113;DHT22;6622;49.752;6.100;2022-11-20T15:40:33;7.00;99.90
13113;DHT22;6622;49.752;6.100;2022-11-20T15:43:01;7.00;99.90
13113;DHT22;6622;49.752;6.100;2022-11-20T15:45:31;7.00;99.90
13113;DHT22;6622;49.752;6.100;2022-11-20T15:47:56;7.00;99.90
13113;DHT22;6622;49.752;6.100;2022-11-20T15:50:23;6.90;99.90
13113;DHT22;6622;49.752;6.100;2022-11-20T15:52:50;6.90;99.90
13113;DHT22;6622;49.752;6.100;2022-11-20T15:55:16;7.00;99.90
13113;DHT22;6622;49.752;6.100;2022-11-20T15:57:43;6.90;99.90
13113;DHT22;6622;49.752;6.100;2022-11-20T16:00:10;7.00;99.90
13113;DHT22;6622;49.752;6.100;2022-11-20T16:02:36;6.90;99.90
13113;DHT22;6622;49.752;6.100;2022-11-20T16:05:03;6.90;99.90
13113;DHT22;6622;49.752;6.100;2022-11-20T16:07:30;6.70;99.90
13113;DHT22;6622;49.752;6.100;2022-11-20T16:09:57;6.70;99.90
13113;DHT22;6622;49.752;6.100;2022-11-20T16:12:23;6.70;99.90
13113;DHT22;6622;49.752;6.100;2022-11-20T16:15:08;6.70;99.90
13113;DHT22;6622;49.752;6.100;2022-11-20T16:17:54;6.60;99.90
13113;DHT22;6622;49.752;6.100;2022-11-20T16:20:20;6.60;99.90
13113;DHT22;6622;49.752;6.100;2022-11-20T16:22:47;6.60;99.90
13113;DHT22;6622;49.752;6.100;2022-11-20T16:25:14;6.60;99.90
13113;DHT22;6622;49.752;6.100;2022-11-20T16:27:41;6.60;99.90
13113;DHT22;6622;49.752;6.100;2022-11-20T16:30:08;6.60;99.90
13113;DHT22;6622;49.752;6.100;2022-11-20T16:32:35;6.60;99.90
13113;DHT22;6622;49.752;6.100;2022-11-20T16:35:02;6.70;99.90
13113;DHT22;6622;49.752;6.100;2022-11-20T16:37:28;6.60;99.90
13113;DHT22;6622;49.752;6.100;2022-11-20T16:39:55;6.60;99.90
13113;DHT22;6622;49.752;6.100;2022-11-20T16:42:22;6.60;99.90
13113;DHT22;6622;49.752;6.100;2022-11-20T16:44:49;6.60;99.90
13113;DHT22;6622;49.752;6.100;2022-11-20T16:47:16;6.60;99.90
13113;DHT22;6622;49.752;6.100;2022-11-20T16:49:42;6.70;99.90
13113;DHT22;6622;49.752;6.100;2022-11-20T16:52:10;6.70;99.90